Time;durP1;ratioP1;P1;durP2;ratioP2;P2;SDS_P1;SDS_P2;PMS_P1;PMS_P2;Temp;Humidity;BMP_temperature;BMP_pressure;BME280_temperature;BME280_humidity;BME280_pressure;Samples;Min_cycle;Max_cycle;Signal;HPM_P1;HPM_P2
2022/07/05 00:00:14;;;;;;;15.05;12.80;;;23.50;99.90;;;;;;5073840;28;20028;-78
2022/07/05 00:02:41;;;;;;;15.55;12.38;;;23.50;99.90;;;;;;5073725;28;20030;-76
2022/07/05 00:05:07;;;;;;;15.40;12.30;;;23.40;99.90;;;;;;5073661;28;20455;-75
2022/07/05 00:07:32;;;;;;;13.63;12.18;;;23.40;99.90;;;;;;5073533;28;20046;-77
2022/07/05 00:09:58;;;;;;;16.75;13.35;;;23.40;99.90;;;;;;5073359;28;20091;-76
2022/07/05 00:12:32;;;;;;;14.45;12.70;;;23.40;99.90;;;;;;5073511;28;20025;-76
2022/07/05 00:14:59;;;;;;;21.75;13.68;;;23.40;99.90;;;;;;5073327;28;20043;-77
2022/07/05 00:17:25;;;;;;;20.02;13.80;;;23.40;99.90;;;;;;5073077;28;20024;-76
2022/07/05 00:19:51;;;;;;;16.55;12.57;;;23.40;99.90;;;;;;5072234;28;20029;-76
2022/07/05 00:22:17;;;;;;;14.65;12.52;;;23.40;99.90;;;;;;5073621;28;20028;-76
2022/07/05 00:24:43;;;;;;;13.52;12.13;;;23.40;99.90;;;;;;5073057;28;20068;-77
2022/07/05 00:27:08;;;;;;;15.20;12.18;;;23.40;99.90;;;;;;5072706;28;20063;-77
2022/07/05 00:29:34;;;;;;;17.40;11.60;;;23.40;99.90;;;;;;5073161;28;20024;-77
2022/07/05 00:32:00;;;;;;;14.98;12.40;;;23.50;99.90;;;;;;5072978;28;20056;-76
2022/07/05 00:34:26;;;;;;;14.50;11.60;;;23.50;99.90;;;;;;5072874;28;20029;-76
2022/07/05 00:36:51;;;;;;;14.95;12.02;;;23.50;99.90;;;;;;5073494;28;20028;-77
2022/07/05 00:39:17;;;;;;;16.85;12.52;;;23.50;99.90;;;;;;5071495;28;20024;-77
2022/07/05 00:41:43;;;;;;;17.75;11.93;;;23.50;99.90;;;;;;5071844;28;20079;-77
2022/07/05 00:44:11;;;;;;;16.23;12.65;;;23.50;99.90;;;;;;5071659;28;20071;-77
2022/07/05 00:46:38;;;;;;;13.35;10.85;;;23.60;99.90;;;;;;5072689;28;20021;-77
2022/07/05 00:49:05;;;;;;;15.30;11.73;;;23.60;99.90;;;;;;5073048;28;20033;-77
2022/07/05 00:51:36;;;;;;;16.92;12.75;;;23.60;99.90;;;;;;5072663;28;20047;-76
2022/07/05 00:54:02;;;;;;;16.07;12.53;;;23.60;99.90;;;;;;5073071;28;20070;-77
2022/07/05 00:56:28;;;;;;;14.70;13.20;;;23.60;99.90;;;;;;5073114;28;20530;-77
2022/07/05 00:58:54;;;;;;;21.65;11.40;;;23.60;99.90;;;;;;5072312;28;20095;-76
2022/07/05 01:01:20;;;;;;;13.00;11.45;;;23.60;99.90;;;;;;5071476;28;20429;-77
2022/07/05 01:03:47;;;;;;;19.05;12.35;;;23.60;99.90;;;;;;5071628;28;20028;-76
2022/07/05 01:06:13;;;;;;;17.00;12.18;;;23.60;99.90;;;;;;5072212;28;20029;-76
2022/07/05 01:08:42;;;;;;;16.65;12.20;;;23.50;99.90;;;;;;5071470;28;20498;-77
2022/07/05 01:11:09;;;;;;;16.30;12.60;;;23.50;99.90;;;;;;5072705;28;20025;-76
2022/07/05 01:13:36;;;;;;;16.27;12.85;;;23.40;99.90;;;;;;5072203;28;20536;-76
2022/07/05 01:16:03;;;;;;;14.10;12.13;;;23.30;99.90;;;;;;5071486;28;20059;-76
2022/07/05 01:18:31;;;;;;;13.63;11.88;;;23.30;99.90;;;;;;5075554;28;20494;-77
2022/07/05 01:20:58;;;;;;;14.02;11.95;;;23.30;99.90;;;;;;5076563;28;20024;-76
2022/07/05 01:23:27;;;;;;;15.35;11.35;;;23.30;99.90;;;;;;5075667;28;20032;-77
2022/07/05 01:25:54;;;;;;;16.63;12.05;;;23.20;99.90;;;;;;5076946;28;20478;-77
2022/07/05 01:28:20;;;;;;;16.58;12.82;;;23.20;99.90;;;;;;5077169;28;20057;-77
2022/07/05 01:30:47;;;;;;;14.80;12.80;;;23.20;99.90;;;;;;5077472;28;20024;-76
2022/07/05 01:33:12;;;;;;;14.02;12.60;;;23.20;99.90;;;;;;5075991;28;20028;-77
2022/07/05 01:35:38;;;;;;;13.68;12.18;;;23.20;99.90;;;;;;5077142;28;20467;-77
2022/07/05 01:38:04;;;;;;;17.27;12.18;;;23.20;99.90;;;;;;5077381;28;20029;-76
2022/07/05 01:40:31;;;;;;;18.20;13.70;;;23.20;99.90;;;;;;5076900;28;20025;-77
2022/07/05 01:42:57;;;;;;;40.05;24.83;;;23.20;99.90;;;;;;5077186;28;20401;-77
2022/07/05 01:48:13;;;;;;;46.25;29.23;;;23.20;99.90;;;;;;5076626;28;20035;-77
2022/07/05 01:50:54;;;;;;;37.78;25.00;;;23.10;99.90;;;;;;5077268;28;20048;-76
2022/07/05 01:53:39;;;;;;;34.92;20.70;;;23.00;99.90;;;;;;5077007;28;20091;-76
2022/07/05 01:56:05;;;;;;;29.92;19.50;;;23.10;99.90;;;;;;5076728;28;20119;-77
2022/07/05 01:58:32;;;;;;;21.52;15.82;;;23.00;99.90;;;;;;5074926;28;20108;-76
2022/07/05 02:00:58;;;;;;;19.35;15.25;;;23.00;99.90;;;;;;5076758;28;20090;-77
2022/07/05 02:03:25;;;;;;;21.70;15.40;;;23.00;99.90;;;;;;5076221;28;20391;-76
2022/07/05 02:05:52;;;;;;;20.10;14.48;;;23.10;99.90;;;;;;5076930;28;20451;-76
2022/07/05 02:08:19;;;;;;;17.65;14.85;;;23.10;99.90;;;;;;5076536;28;20025;-76
2022/07/05 02:10:45;;;;;;;18.35;13.85;;;23.20;99.90;;;;;;5076379;28;20166;-76
2022/07/05 02:13:11;;;;;;;21.45;13.98;;;23.20;99.90;;;;;;5075340;28;20505;-76
2022/07/05 02:15:40;;;;;;;25.50;15.95;;;23.20;99.90;;;;;;5076032;28;20028;-77
2022/07/05 02:18:07;;;;;;;22.10;15.77;;;23.10;99.90;;;;;;5075254;28;20024;-77
2022/07/05 02:20:34;;;;;;;19.17;15.27;;;23.10;99.90;;;;;;5076248;28;20352;-76
2022/07/05 02:23:00;;;;;;;22.77;14.38;;;23.10;99.90;;;;;;5074921;28;20028;-77
2022/07/05 02:25:26;;;;;;;20.13;15.35;;;23.00;99.90;;;;;;5076128;28;20029;-77
2022/07/05 02:27:53;;;;;;;17.42;13.38;;;23.00;99.90;;;;;;5076193;28;20048;-76
2022/07/05 02:30:19;;;;;;;19.40;14.45;;;23.00;99.90;;;;;;5076013;28;20040;-76
2022/07/05 02:32:45;;;;;;;19.77;15.68;;;23.00;99.90;;;;;;5076594;28;20029;-76
2022/07/05 02:35:12;;;;;;;20.73;15.45;;;23.00;99.90;;;;;;5076260;28;20051;-76
2022/07/05 02:37:41;;;;;;;19.95;15.05;;;23.00;99.90;;;;;;5075836;28;20471;-76
2022/07/05 02:40:11;;;;;;;23.25;15.68;;;23.00;99.90;;;;;;5074838;28;20025;-77
2022/07/05 02:42:38;;;;;;;18.35;14.77;;;22.90;99.90;;;;;;5075987;28;20024;-76
2022/07/05 02:45:05;;;;;;;17.33;15.23;;;23.00;99.90;;;;;;5076077;28;20456;-76
2022/07/05 02:47:31;;;;;;;22.63;15.25;;;23.00;99.90;;;;;;5075808;28;20524;-76
2022/07/05 02:49:58;;;;;;;17.63;15.40;;;23.00;99.90;;;;;;5075958;28;20033;-75
2022/07/05 02:52:24;;;;;;;21.23;16.40;;;23.00;99.90;;;;;;5074428;28;20111;-76
2022/07/05 02:54:50;;;;;;;24.25;15.65;;;23.00;99.90;;;;;;5074746;28;20167;-76
2022/07/05 02:57:16;;;;;;;23.42;15.32;;;22.80;99.90;;;;;;5075390;28;20025;-76
2022/07/05 02:59:42;;;;;;;26.67;16.85;;;22.80;99.90;;;;;;5074299;28;20115;-76
2022/07/05 03:02:07;;;;;;;23.73;15.45;;;22.70;99.90;;;;;;5075742;28;20024;-77
2022/07/05 03:04:33;;;;;;;23.35;16.13;;;22.60;99.90;;;;;;5074023;28;20375;-76
2022/07/05 03:06:59;;;;;;;24.83;15.85;;;22.60;99.90;;;;;;5075566;28;20387;-76
2022/07/05 03:09:25;;;;;;;24.60;17.25;;;22.60;99.90;;;;;;5075941;28;20386;-77
2022/07/05 03:11:51;;;;;;;29.10;18.52;;;22.60;99.90;;;;;;5075573;28;20518;-77
2022/07/05 03:14:16;;;;;;;23.70;15.98;;;22.60;99.90;;;;;;5074213;28;20033;-77
2022/07/05 03:16:44;;;;;;;22.35;15.70;;;22.50;99.90;;;;;;5075254;28;20043;-77
2022/07/05 03:19:10;;;;;;;26.42;16.73;;;22.50;99.90;;;;;;5073803;28;20029;-76
2022/07/05 03:21:36;;;;;;;27.17;17.75;;;22.50;99.90;;;;;;5075414;28;20029;-77
2022/07/05 03:24:02;;;;;;;31.70;17.90;;;22.50;99.90;;;;;;5075089;28;20356;-77
2022/07/05 03:26:28;;;;;;;29.77;18.02;;;22.60;99.90;;;;;;5074571;28;20036;-77
2022/07/05 03:28:54;;;;;;;27.63;18.35;;;22.60;99.90;;;;;;5075143;28;20104;-76
2022/07/05 03:31:20;;;;;;;27.83;18.90;;;22.60;99.90;;;;;;5075122;28;20070;-77
2022/07/05 03:33:46;;;;;;;33.20;19.75;;;22.60;99.90;;;;;;5073360;28;20024;-75
2022/07/05 03:36:12;;;;;;;30.92;19.75;;;22.60;99.90;;;;;;5074794;28;20035;-77
2022/07/05 03:38:38;;;;;;;29.52;19.92;;;22.70;99.90;;;;;;5074715;28;20028;-76
2022/07/05 03:41:03;;;;;;;28.63;20.80;;;22.70;99.90;;;;;;5074457;28;20032;-77
2022/07/05 03:43:29;;;;;;;33.50;20.88;;;22.70;99.90;;;;;;5074906;28;20031;-76
2022/07/05 03:45:55;;;;;;;30.35;17.58;;;22.80;99.90;;;;;;5074756;28;20146;-77
2022/07/05 03:48:21;;;;;;;26.83;17.45;;;22.70;99.90;;;;;;5074960;28;20036;-76
2022/07/05 03:50:47;;;;;;;29.85;19.15;;;22.70;99.90;;;;;;5074618;28;20035;-76
2022/07/05 03:53:13;;;;;;;28.45;19.60;;;22.70;99.90;;;;;;5074580;28;20028;-76
2022/07/05 03:55:39;;;;;;;24.30;17.55;;;22.80;99.90;;;;;;5074578;28;20040;-76
2022/07/05 03:58:05;;;;;;;29.52;18.55;;;22.80;99.90;;;;;;5074684;28;20060;-76
2022/07/05 04:00:32;;;;;;;26.30;15.02;;;22.80;99.90;;;;;;5074039;28;20106;-77
2022/07/05 04:02:57;;;;;;;22.52;13.98;;;22.80;99.90;;;;;;5072538;28;20028;-77
2022/07/05 04:05:23;;;;;;;23.70;14.60;;;22.90;99.90;;;;;;5074215;28;20031;-77
2022/07/05 04:07:54;;;;;;;29.17;16.27;;;22.90;99.90;;;;;;5073658;28;20517;-76
2022/07/05 04:10:21;;;;;;;26.95;16.33;;;22.90;99.90;;;;;;5074382;28;20029;-78
2022/07/05 04:12:47;;;;;;;23.55;16.23;;;22.90;99.90;;;;;;5073092;28;20460;-77
2022/07/05 04:15:13;;;;;;;35.72;20.33;;;22.80;99.90;;;;;;5073825;28;20534;-77
2022/07/05 04:17:53;;;;;;;32.80;19.38;;;22.80;99.90;;;;;;5072904;28;20036;-76
2022/07/05 04:20:21;;;;;;;32.75;20.92;;;22.90;99.90;;;;;;5074173;28;20028;-76
2022/07/05 04:22:47;;;;;;;40.17;23.63;;;22.90;99.90;;;;;;5074256;28;20028;-76
2022/07/05 04:25:16;;;;;;;35.15;22.35;;;22.90;99.90;;;;;;5073012;28;20028;-77
2022/07/05 04:27:45;;;;;;;35.42;21.75;;;23.00;99.90;;;;;;5074053;28;20055;-77
2022/07/05 04:30:11;;;;;;;40.97;23.15;;;23.00;99.90;;;;;;5073882;28;20020;-76
2022/07/05 04:32:37;;;;;;;43.15;25.63;;;23.10;99.90;;;;;;5074157;28;20455;-76
2022/07/05 04:35:03;;;;;;;41.33;27.90;;;23.20;99.90;;;;;;5074363;28;20054;-75
2022/07/05 04:37:29;;;;;;;48.97;26.27;;;23.20;99.90;;;;;;5073851;28;20112;-76
2022/07/05 04:39:54;;;;;;;42.25;26.35;;;23.30;99.90;;;;;;5074159;28;20151;-76
2022/07/05 04:42:20;;;;;;;46.72;27.90;;;;;;;;;;5074225;28;20051;-75
2022/07/05 04:44:47;;;;;;;48.03;27.63;;;;;;;;;;5073570;28;20099;-76
2022/07/05 04:47:13;;;;;;;36.75;22.63;;;;;;;;;;5073657;28;20425;-75
2022/07/05 04:49:39;;;;;;;35.78;20.75;;;;;;;;;;5072396;28;20032;-76
2022/07/05 04:52:05;;;;;;;30.50;18.73;;;;;;;;;;5072652;28;20017;-76
2022/07/05 04:54:31;;;;;;;31.27;18.80;;;;;;;;;;5073911;28;20016;-76
2022/07/05 04:56:57;;;;;;;28.73;18.05;;;;;;;;;;5073468;28;20029;-76
2022/07/05 04:59:24;;;;;;;24.88;17.25;;;;;;;;;;5073840;28;20028;-76
2022/07/05 05:01:50;;;;;;;31.38;19.27;;;;;;;;;;5072556;28;20032;-76
2022/07/05 05:04:16;;;;;;;25.10;17.92;;;;;;;;;;5073283;28;20027;-76
2022/07/05 05:06:42;;;;;;;22.80;17.45;;;;;;;;;;5073934;28;20049;-76
2022/07/05 05:09:08;;;;;;;23.80;16.75;;;;;;;;;;5073799;28;20020;-76
2022/07/05 05:11:34;;;;;;;26.23;18.15;;;;;;;;;;5073397;28;20020;-76
2022/07/05 05:14:00;;;;;;;28.42;18.58;;;;;;;;;;5073721;28;20025;-77
2022/07/05 05:16:27;;;;;;;39.40;18.08;;;;;;;;;;5073679;28;20025;-77
2022/07/05 05:18:53;;;;;;;33.03;19.60;;;;;;;;;;5073465;28;20021;-76
2022/07/05 05:21:19;;;;;;;37.30;18.95;;;;;;;;;;5073639;28;20021;-76
2022/07/05 05:23:45;;;;;;;36.30;20.52;;;;;;;;;;5073690;28;20020;-76
2022/07/05 05:26:11;;;;;;;34.53;19.98;;;;;;;;;;5073455;28;20035;-76
2022/07/05 05:28:38;;;;;;;35.88;20.73;;;;;;;;;;5073851;28;20070;-76
2022/07/05 05:31:05;;;;;;;39.08;22.30;;;;;;;;;;5072318;28;20115;-76
2022/07/05 05:33:31;;;;;;;30.70;21.65;;;;;;;;;;5073028;28;20017;-76
2022/07/05 05:35:58;;;;;;;29.10;21.70;;;;;;;;;;5073252;28;20024;-77
2022/07/05 05:38:24;;;;;;;25.70;17.58;;;;;;;;;;5073408;28;20491;-76
2022/07/05 05:40:50;;;;;;;23.08;16.40;;;;;;;;;;5073502;28;20024;-77
2022/07/05 05:43:16;;;;;;;22.00;15.65;;;;;;;;;;5073559;28;20012;-76
2022/07/05 05:45:42;;;;;;;24.85;17.58;;;;;;;;;;5073124;28;20031;-76
2022/07/05 05:48:08;;;;;;;24.52;18.05;;;;;;;;;;5072123;28;20028;-75
2022/07/05 05:50:36;;;;;;;19.83;15.70;;;;;;;;;;5073126;28;20021;-76
2022/07/05 05:53:02;;;;;;;16.55;14.18;;;;;;;;;;5072782;28;20021;-76
2022/07/05 05:55:29;;;;;;;17.40;13.85;;;;;;;;;;5073388;28;20070;-77
2022/07/05 05:57:57;;;;;;;20.70;14.70;;;;;;;;;;5073554;28;20036;-76
2022/07/05 06:00:23;;;;;;;20.48;14.65;;;;;;;;;;5072687;28;20028;-75
2022/07/05 06:02:50;;;;;;;19.73;16.13;;;;;;;;;;5074592;28;20027;-76
2022/07/05 06:05:17;;;;;;;23.58;15.35;;;;;;;;;;5076628;28;20576;-77
2022/07/05 06:07:44;;;;;;;21.65;16.55;;;;;;;;;;5076578;28;20395;-75
2022/07/05 06:10:10;;;;;;;22.52;15.95;;;;;;;;;;5076867;28;20020;-76
2022/07/05 06:12:36;;;;;;;18.90;14.73;;;;;;;;;;5075616;28;20021;-76
2022/07/05 06:15:03;;;;;;;22.77;15.60;;;;;;;;;;5075231;28;20020;-75
2022/07/05 06:17:29;;;;;;;23.42;15.32;;;;;;;;;;5077176;28;20028;-74
2022/07/05 06:19:55;;;;;;;20.20;14.80;;;;;;;;;;5077002;28;20094;-76
2022/07/05 06:22:21;;;;;;;19.15;15.38;;;;;;;;;;5076147;28;20352;-75
2022/07/05 06:24:47;;;;;;;24.23;15.35;;;;;;;;;;5076599;28;20463;-75
2022/07/05 06:27:13;;;;;;;23.52;17.77;;;;;;;;;;5076281;28;20080;-75
2022/07/05 06:29:40;;;;;;;25.23;17.67;;;;;;;;;;5076118;28;20030;-76
2022/07/05 06:32:06;;;;;;;21.40;17.88;;;;;;;;;;5076817;28;20094;-74
2022/07/05 06:34:32;;;;;;;23.50;17.45;;;;;;;;;;5075856;28;20028;-75
2022/07/05 06:36:58;;;;;;;20.38;16.60;;;;;;;;;;5076423;28;20031;-75
2022/07/05 06:39:24;;;;;;;26.10;17.90;;;;;;;;;;5076697;28;20105;-76
2022/07/05 06:41:54;;;;;;;19.63;17.05;;;;;;;;;;5075723;28;20035;-78
2022/07/05 06:44:20;;;;;;;27.40;16.38;;;;;;;;;;5075917;28;20092;-76
2022/07/05 06:46:46;;;;;;;16.25;12.07;;;;;;;;;;5075586;28;20029;-75
2022/07/05 06:49:12;;;;;;;17.42;12.10;;;;;;;;;;5075589;28;20029;-75
2022/07/05 06:51:38;;;;;;;16.35;11.85;;;;;;;;;;5076188;28;20016;-75
2022/07/05 06:54:04;;;;;;;17.67;12.15;;;;;;;;;;5075826;28;20028;-74
2022/07/05 06:56:30;;;;;;;15.52;11.05;;;;;;;;;;5075691;28;20506;-76
2022/07/05 06:58:56;;;;;;;12.88;11.15;;;;;;;;;;5075070;28;20031;-77
2022/07/05 07:01:23;;;;;;;16.85;10.70;;;;;;;;;;5075890;28;20025;-77
2022/07/05 07:03:49;;;;;;;12.95;10.15;;;;;;;;;;5075536;28;20035;-74
2022/07/05 07:06:15;;;;;;;11.85;9.45;;;;;;;;;;5075838;28;20474;-75
2022/07/05 07:11:26;;;;;;;12.65;10.25;;;;;;;;;;5075644;28;20052;-75
2022/07/05 07:13:53;;;;;;;12.50;9.77;;;;;;;;;;5074492;28;20020;-74
2022/07/05 07:16:19;;;;;;;12.45;11.05;;;;;;;;;;5075484;28;20033;-76
2022/07/05 07:18:45;;;;;;;12.02;9.85;;;;;;;;;;5074174;28;20032;-75
2022/07/05 07:21:11;;;;;;;16.75;11.00;;;;;;;;;;5075843;28;20034;-77
2022/07/05 07:23:37;;;;;;;21.30;10.90;;;;;;;;;;5075453;28;20017;-75
2022/07/05 07:26:03;;;;;;;19.00;10.57;;;;;;;;;;5075266;28;20502;-75
2022/07/05 07:28:30;;;;;;;13.10;9.90;;;;;;;;;;5074989;28;20048;-77
2022/07/05 07:30:56;;;;;;;12.77;11.07;;;;;;;;;;5075119;28;20035;-76
2022/07/05 07:33:22;;;;;;;10.40;9.35;;;;;;;;;;5075293;28;20352;-77
2022/07/05 07:35:48;;;;;;;11.65;7.95;;;;;;;;;;5075327;28;20443;-77
2022/07/05 07:38:16;;;;;;;12.73;10.23;;;;;;;;;;5074496;28;20506;-75
2022/07/05 07:40:42;;;;;;;10.07;7.82;;;;;;;;;;5075238;28;20023;-76
2022/07/05 07:43:08;;;;;;;10.70;8.90;;;;;;;;;;5075397;28;20047;-76
2022/07/05 07:45:34;;;;;;;9.65;7.28;;;;;;;;;;5074490;28;20029;-75
2022/07/05 07:48:00;;;;;;;13.52;7.53;;;;;;;;;;5074749;28;20028;-76
2022/07/05 07:50:26;;;;;;;10.13;7.55;;;;;;;;;;5074715;28;20025;-77
2022/07/05 07:52:52;;;;;;;9.82;8.00;;;;;;;;;;5074662;28;20032;-77
2022/07/05 07:55:18;;;;;;;9.48;8.27;;;;;;;;;;5075140;28;20509;-75
2022/07/05 07:57:45;;;;;;;9.70;8.80;;;;;;;;;;5073545;28;20353;-75
2022/07/05 08:00:11;;;;;;;7.30;6.60;;;;;;;;;;5074453;28;20032;-76
2022/07/05 08:02:37;;;;;;;9.45;7.03;;;;;;;;;;5074738;28;20092;-76
2022/07/05 08:05:04;;;;;;;8.50;7.70;;;;;;;;;;5073253;28;20016;-75
2022/07/05 08:07:31;;;;;;;10.88;7.30;;;;;;;;;;5074069;28;20056;-77
2022/07/05 08:09:58;;;;;;;8.93;8.13;;;;;;;;;;5073579;28;20127;-75
2022/07/05 08:12:24;;;;;;;10.43;7.30;;;;;;;;;;5073969;28;20021;-77
2022/07/05 08:14:50;;;;;;;9.32;8.45;;;;;;;;;;5074185;28;20024;-77
2022/07/05 08:17:16;;;;;;;9.20;8.30;;;;;;;;;;5074443;28;20025;-76
2022/07/05 08:22:27;;;;;;;8.77;7.85;;;;;;;;;;5074398;28;20074;-77
2022/07/05 08:24:53;;;;;;;8.65;7.40;;;;;;;;;;5073849;28;20107;-76
2022/07/05 08:27:19;;;;;;;13.30;8.48;;;;;;;;;;5073374;28;20056;-76
2022/07/05 08:29:45;;;;;;;9.45;8.40;;;;;;;;;;5072856;28;20197;-76
2022/07/05 08:32:11;;;;;;;8.48;7.78;;;;;;;;;;5074068;28;20091;-76
2022/07/05 08:34:38;;;;;;;9.30;8.60;;;;;;;;;;5073835;28;20035;-75
2022/07/05 08:37:04;;;;;;;9.57;8.55;;;;;;;;;;5072869;28;20025;-75
2022/07/05 08:39:31;;;;;;;11.68;10.68;;;;;;;;;;5074074;28;20029;-74
2022/07/05 08:41:57;;;;;;;11.10;9.15;;;;;;;;;;5073803;28;20023;-75
2022/07/05 08:44:24;;;;;;;10.75;9.68;;;;;;;;;;5074305;28;20099;-75
2022/07/05 08:46:52;;;;;;;12.40;9.00;;;;;;;;;;5074157;28;20025;-75
2022/07/05 08:49:26;;;;;;;13.77;10.77;;;;;;;;;;5073463;28;20051;-75
2022/07/05 08:51:53;;;;;;;10.95;9.95;;;;;;;;;;5074057;28;20482;-75
2022/07/05 08:54:20;;;;;;;10.73;9.73;;;;;;;;;;5073805;28;20020;-76
2022/07/05 08:56:46;;;;;;;10.38;9.35;;;;;;;;;;5073694;28;20046;-75
2022/07/05 08:59:12;;;;;;;11.05;10.05;;;;;;;;;;5073896;28;20037;-75
2022/07/05 09:01:40;;;;;;;12.25;10.02;;;;;;;;;;5073418;28;20024;-76
2022/07/05 09:04:07;;;;;;;10.02;9.00;;;;;;;;;;5073762;28;20017;-75
2022/07/05 09:06:35;;;;;;;10.70;9.60;;;;;;;;;;5073365;28;20370;-76
2022/07/05 09:09:03;;;;;;;10.90;9.82;;;;;;;;;;5073455;28;20043;-75
2022/07/05 09:11:31;;;;;;;12.98;9.85;;;;;;;;;;5073693;28;20027;-76
2022/07/05 09:13:58;;;;;;;10.90;10.00;;;;;;;;;;5073779;28;20020;-76
2022/07/05 09:16:24;;;;;;;15.93;10.07;;;;;;;;;;5073625;28;20028;-76
2022/07/05 09:18:51;;;;;;;14.07;9.82;;;;;;;;;;5073423;28;20379;-75
2022/07/05 09:21:18;;;;;;;14.43;9.25;;;;;;;;;;5072374;28;20111;-75
2022/07/05 09:23:45;;;;;;;12.70;10.10;;;;;;;;;;5073362;28;20020;-75
2022/07/05 09:26:12;;;;;;;14.02;12.73;;;;;;;;;;5073223;28;20527;-76
2022/07/05 09:28:38;;;;;;;12.00;11.00;;;;;;;;;;5073231;28;20110;-76
2022/07/05 09:31:04;;;;;;;12.02;9.68;;;;;;;;;;5073436;28;20032;-75
2022/07/05 09:33:31;;;;;;;11.05;9.77;;;;;;;;;;5073807;28;20066;-75
2022/07/05 09:35:57;;;;;;;11.88;10.77;;;;;;;;;;5073166;28;20016;-75
2022/07/05 09:38:24;;;;;;;15.63;10.55;;;;;;;;;;5075551;28;20024;-76
2022/07/05 09:40:52;;;;;;;10.20;9.40;;;;;;;;;;5077276;28;20020;-75
2022/07/05 09:43:19;;;;;;;11.35;10.38;;;;;;;;;;5077265;28;20066;-76
2022/07/05 09:45:54;;;;;;;8.20;7.60;;;;;;;;;;5077436;28;20021;-76
2022/07/05 09:48:20;;;;;;;17.35;10.10;;;;;;;;;;5077342;28;20035;-75
2022/07/05 09:50:46;;;;;;;12.50;11.35;;;;;;;;;;5076954;28;20021;-75
2022/07/05 09:53:13;;;;;;;11.05;10.05;;;;;;;;;;5077217;28;20020;-76
2022/07/05 09:55:40;;;;;;;10.30;9.27;;;;;;;;;;5076934;28;20078;-75
2022/07/05 09:58:07;;;;;;;10.75;9.50;;;;;;;;;;5076846;28;20078;-75
2022/07/05 10:00:33;;;;;;;10.70;8.43;;;;;;;;;;5076772;28;20402;-76
2022/07/05 10:03:02;;;;;;;10.20;9.40;;;;;;;;;;5077047;28;20024;-76
2022/07/05 10:05:32;;;;;;;13.70;9.50;;;;;;;;;;5076324;28;20066;-75
2022/07/05 10:07:59;;;;;;;11.85;10.65;;;;;;;;;;5076604;28;20043;-76
2022/07/05 10:10:29;;;;;;;11.57;10.45;;;;;;;;;;5076616;28;20049;-75
2022/07/05 10:13:03;;;;;;;11.25;10.30;;;;;;;;;;5075234;28;20031;-76
2022/07/05 10:15:30;;;;;;;11.02;9.90;;;;;;;;;;5076817;28;20020;-76
2022/07/05 10:17:59;;;;;;;9.68;8.40;;;;;;;;;;5076941;28;20025;-75
2022/07/05 10:20:40;;;;;;;10.05;8.60;;;;;;;;;;5076231;28;20078;-75
2022/07/05 10:23:09;;;;;;;9.82;8.15;;;;;;;;;;5076464;28;20020;-77
2022/07/05 10:25:36;;;;;;;9.95;8.70;;;;;;;;;;5075971;28;20021;-76
2022/07/05 10:28:03;;;;;;;12.40;8.93;;;;;;;;;;5076729;28;20056;-75
2022/07/05 10:30:29;;;;;;;9.98;8.82;;;;;;;;;;5076158;28;20387;-76
2022/07/05 10:32:56;;;;;;;15.07;9.85;;;;;;;;;;5076167;28;20056;-76
2022/07/05 10:35:23;;;;;;;13.57;8.55;;;;;;;;;;5076163;28;20025;-75
2022/07/05 10:37:49;;;;;;;11.30;10.30;;;;;;;;;;5076655;28;20024;-75
2022/07/05 10:40:16;;;;;;;11.52;10.57;;;;;;;;;;5075992;28;20024;-75
2022/07/05 10:42:53;;;;;;;10.68;9.88;;;;;;;;;;5076301;28;20483;-75
2022/07/05 10:45:24;;;;;;;11.02;10.10;;;;;;;;;;5076284;28;20033;-76
2022/07/05 10:48:08;;;;;;;11.07;10.13;;;;;;;;;;5075846;28;20027;-75
2022/07/05 10:50:45;;;;;;;10.73;9.80;;;;;;;;;;5075901;28;20032;-77
2022/07/05 10:53:23;;;;;;;;;;;;;;;;;;;;;
2022/07/05 10:55:59;;;;;;;9.48;8.70;;;;;;;;;;5075733;28;20358;-78
2022/07/05 10:58:30;;;;;;;9.77;8.88;;;;;;;;;;5076182;28;20410;-78
2022/07/05 11:01:15;;;;;;;11.07;8.88;;;;;;;;;;5075432;28;20028;-76
2022/07/05 11:04:00;;;;;;;9.10;8.43;;;;;;;;;;5075984;28;20058;-83
2022/07/05 11:06:31;;;;;;;11.00;8.95;;;;;;;;;;5075523;28;20386;-75
2022/07/05 11:09:00;;;;;;;10.48;9.50;;;;;;;;;;5075582;28;20028;-76
2022/07/05 11:11:27;;;;;;;10.77;9.88;;;;;;;;;;5074024;28;20020;-74
2022/07/05 11:13:58;;;;;;;10.85;9.85;;;;;;;;;;5075319;28;20036;-75
2022/07/05 11:16:24;;;;;;;;;;;;;;;;;;5075670;28;20028;-76
2022/07/05 11:18:52;;;;;;;11.05;9.95;;;;;;;;;;5075300;28;19905;-76
2022/07/05 11:21:22;;;;;;;10.77;9.30;;;;;;;;;;5075464;28;20048;-76
2022/07/05 11:23:49;;;;;;;9.85;9.05;;;;;;;;;;5074949;28;20025;-75
2022/07/05 11:26:18;;;;;;;11.23;9.90;;;;;;;;;;5074723;28;20111;-75
2022/07/05 11:28:45;;;;;;;11.75;9.60;;;;;;;;;;5073494;28;20047;-75
2022/07/05 11:31:11;;;;;;;10.93;10.02;;;;;;;;;;5075452;28;20099;-76
2022/07/05 11:33:44;;;;;;;11.25;10.10;;;;;;;;;;5074011;28;20073;-76
2022/07/05 11:36:25;;;;;;;10.05;8.60;;;;;;;;;;5073695;28;20525;-76
2022/07/05 11:39:20;;;;;;;11.20;10.10;;;;;;;;;;5073681;28;20123;-77
2022/07/05 11:41:49;;;;;;;11.30;10.20;;;;;;;;;;5073955;28;20035;-75
2022/07/05 11:44:15;;;;;;;10.93;10.02;;;;;;;;;;5074777;28;20031;-75
2022/07/05 11:46:42;;;;;;;9.93;8.90;;;;;;;;;;5075019;28;20068;-77
2022/07/05 11:49:09;;;;;;;12.35;10.50;;;;;;;;;;5074626;28;20021;-76
2022/07/05 11:51:35;;;;;;;13.30;11.93;;;;;;;;;;5073489;28;20025;-76
2022/07/05 11:54:01;;;;;;;11.60;10.35;;;;;;;;;;5075225;28;20028;-78
2022/07/05 11:56:28;;;;;;;17.55;10.65;;;;;;;;;;5074578;28;20028;-75
2022/07/05 11:58:54;;;;;;;9.95;9.05;;;;;;;;;;5073560;28;20482;-76
2022/07/05 12:01:27;;;;;;;11.90;10.82;;;;;;;;;;5074098;28;20046;-80
2022/07/05 12:03:55;;;;;;;12.80;10.60;;;;;;;;;;5074487;28;20103;-76
2022/07/05 12:06:23;;;;;;;11.27;10.32;;;;;;;;;;5074591;28;20025;-75
2022/07/05 12:09:01;;;;;;;11.85;10.85;;;;;;;;;;5074913;28;20100;-76
2022/07/05 12:14:19;;;;;;;12.18;10.18;;;;;;;;;;5074390;28;20063;-76
2022/07/05 12:16:46;;;;;;;11.55;10.40;;;;;;;;;;5074866;28;20073;-76
2022/07/05 12:19:12;;;;;;;12.60;11.30;;;;;;;;;;5072849;28;20028;-77
2022/07/05 12:21:38;;;;;;;11.63;10.52;;;;;;;;;;5073171;28;20025;-76
2022/07/05 12:24:04;;;;;;;11.00;10.02;;;;;;;;;;5074276;28;20024;-77
2022/07/05 12:26:31;;;;;;;12.43;10.85;;;;;;;;;;5073788;28;20042;-76
2022/07/05 12:28:57;;;;;;;11.02;10.02;;;;;;;;;;5074747;28;20016;-75
2022/07/05 12:31:24;;;;;;;15.13;10.52;;;;;;;;;;5073397;28;20024;-77
2022/07/05 12:33:51;;;;;;;21.98;8.88;;;;;;;;;;5073960;28;20043;-77
2022/07/05 12:36:18;;;;;;;12.30;10.32;;;;;;;;;;5074466;28;20031;-78
2022/07/05 12:38:44;;;;;;;10.50;9.60;;;;;;;;;;5074031;28;20027;-77
2022/07/05 12:41:11;;;;;;;12.77;10.32;;;;;;;;;;5073847;28;20016;-77
2022/07/05 12:43:50;;;;;;;12.57;9.80;;;;;;;;;;5074338;28;20059;-78
2022/07/05 12:46:17;;;;;;;11.65;10.68;;;;;;;;;;5072498;28;20027;-78
2022/07/05 12:48:43;;;;;;;11.68;10.65;;;;;;;;;;5074378;28;20410;-77
2022/07/05 12:51:10;;;;;;;11.27;10.07;;;;;;;;;;5074027;28;20024;-78
2022/07/05 12:59:14;;;;;;;13.75;10.52;;;;;;;;;;5073592;28;20442;-76
2022/07/05 13:01:42;;;;;;;13.27;10.50;;;;;;;;;;5072210;28;20119;-77
2022/07/05 13:04:11;;;;;;;12.70;10.68;;;;;;;;;;5073862;28;20021;-78
2022/07/05 13:06:49;;;;;;;15.48;10.95;;;;;;;;;;5073084;28;20031;-76
2022/07/05 13:09:16;;;;;;;11.73;10.57;;;;;;;;;;5073611;28;20035;-76
2022/07/05 13:11:43;;;;;;;12.25;10.32;;;;;;;;;;5073126;28;20024;-76
2022/07/05 13:14:09;;;;;;;11.50;10.23;;;;;;;;;;5072831;28;20032;-77
2022/07/05 13:16:35;;;;;;;13.23;8.35;;;;;;;;;;5073715;28;20044;-76
2022/07/05 13:19:11;;;;;;;9.25;7.93;;;;;;;;;;5073691;28;20020;-75
2022/07/05 13:21:38;;;;;;;8.98;8.02;;;;;;;;;;5073604;28;20020;-76
2022/07/05 13:24:04;;;;;;;8.95;8.05;;;;;;;;;;5073758;28;20024;-76
2022/07/05 13:26:31;;;;;;;9.52;8.25;;;;;;;;;;5073323;28;20461;-76
2022/07/05 13:28:57;;;;;;;14.32;8.02;;;;;;;;;;5072095;28;20017;-77
2022/07/05 13:31:23;;;;;;;9.63;8.70;;;;;;;;;;5071357;28;20031;-75
2022/07/05 13:33:49;;;;;;;10.43;9.43;;;;;;;;;;5072598;28;20095;-77
2022/07/05 13:36:15;;;;;;;10.95;9.60;;;;;;;;;;5072286;28;20031;-76
2022/07/05 13:38:42;;;;;;;10.93;9.05;;;;;;;;;;5071333;28;20031;-75
2022/07/05 13:41:08;;;;;;;14.27;9.43;;;;;;;;;;5072557;28;20023;-75
2022/07/05 13:43:34;;;;;;;9.88;9.07;;;;;;;;;;5072066;28;20023;-77
2022/07/05 13:46:00;;;;;;;9.68;8.68;;;;;;;;;;5072653;28;20021;-75
2022/07/05 13:48:26;;;;;;;12.85;8.80;;;;;;;;;;5070624;28;20062;-75
2022/07/05 13:50:52;;;;;;;10.65;9.55;;;;;;;;;;5072481;28;20094;-75
2022/07/05 13:53:20;;;;;;;14.38;9.25;;;;;;;;;;5072393;28;20089;-76
2022/07/05 13:55:46;;;;;;;10.73;9.43;;;;;;;;;;5071706;28;20027;-75
2022/07/05 13:58:12;;;;;;;15.57;8.55;;;;;;;;;;5072106;28;20020;-75